Prosser Lakeview, California
Current Conditions -  °F | °C
As of 11:45 AM on Thursday 30 Oct 2014 (Local Time) from KTRK Reporting Station
Broken Clouds Broken Clouds  
Wind Chill: 41°   Ceiling: 14000
Heat Index: 41°   Visibility: 10mi
Dew Point: 34°   Wind: 0mph
Humidity: 76%   Direction: NA
Pressure: 30.17"   Gusts: NA
Location:  39.3569°N, 120.175°W
Report Text: KTRK 301845Z 00000KT 10SM BKN140 05/01 A3017 RMK NOSPECI
Loading
Personal Weather Stations






























Interactive Weather Map New forecast layout! Learn more

10-Day Weather Forecast

Advertisements
Track Severe Weather on mobile